createdAt,value
2022-10-09T00:01:19.183Z,13.6
2022-10-09T00:06:03.566Z,13.5
2022-10-09T00:11:35.472Z,13.3
2022-10-09T00:15:14.898Z,13.2
2022-10-09T00:20:00.161Z,13.2
2022-10-09T00:21:04.521Z,13.2
2022-10-09T00:22:19.059Z,13.1
2022-10-09T00:25:43.346Z,13.2
2022-10-09T00:31:03.031Z,13.2
2022-10-09T00:36:17.223Z,13.2
2022-10-09T00:40:49.049Z,13.2
2022-10-09T00:45:33.353Z,13
2022-10-09T00:51:05.560Z,13
2022-10-09T00:54:33.061Z,13
2022-10-09T00:59:27.296Z,12.8
2022-10-09T01:00:31.745Z,12.8
2022-10-09T01:22:29.249Z,12.6
2022-10-09T01:23:38.596Z,12.7
2022-10-09T01:28:33.156Z,12.6
2022-10-09T01:33:17.249Z,12.3
2022-10-09T01:38:49.637Z,12.3
2022-10-09T01:42:24.085Z,12.4
2022-10-09T01:47:28.501Z,12.1
2022-10-09T01:48:32.652Z,12.2
2022-10-09T01:59:57.466Z,12.4
2022-10-09T02:01:06.938Z,12.4
2022-10-09T02:05:51.383Z,12.2
2022-10-09T02:11:06.270Z,12.3
2022-10-09T02:15:36.257Z,12.3
2022-10-09T02:21:20.382Z,12
2022-10-09T02:29:32.635Z,12
2022-10-09T02:34:57.257Z,11.7
2022-10-09T02:36:01.446Z,11.7
2022-10-09T02:39:27.013Z,11.8
2022-10-09T02:51:48.938Z,11.3
2022-10-09T02:52:58.471Z,11.2
2022-10-09T02:57:43.094Z,11.1
2022-10-09T03:02:57.717Z,11.1
2022-10-09T03:08:12.263Z,10.9
2022-10-09T03:13:44.572Z,11.1
2022-10-09T03:22:42.218Z,11.1
2022-10-09T03:23:46.550Z,11.1
2022-10-09T03:32:26.735Z,11
2022-10-09T03:33:30.742Z,11
2022-10-09T03:41:45.404Z,10.9
2022-10-09T03:42:49.965Z,10.9
2022-10-09T03:46:15.166Z,10.8
2022-10-09T03:54:07.642Z,10.7
2022-10-09T03:55:17.070Z,10.7
2022-10-09T04:00:01.631Z,10.7
2022-10-09T04:04:32.006Z,10.7
2022-10-09T04:10:03.914Z,10.5
2022-10-09T04:27:18.072Z,10.3
2022-10-09T04:28:22.565Z,10.3
2022-10-09T04:36:32.302Z,10.1
2022-10-09T04:41:21.905Z,10
2022-10-09T04:42:26.363Z,10
2022-10-09T04:46:05.500Z,9.9
2022-10-09T04:50:50.327Z,9.8
2022-10-09T04:51:54.510Z,9.8
2022-10-09T05:07:42.590Z,9.6
2022-10-09T05:08:51.884Z,9.7
2022-10-09T05:13:36.600Z,9.6
2022-10-09T05:18:06.557Z,9.6
2022-10-09T05:22:52.003Z,9.5
2022-10-09T05:28:06.140Z,9.5
2022-10-09T05:31:21.872Z,9.6
2022-10-09T05:32:26.202Z,9.6
2022-10-09T05:33:30.354Z,9.6
2022-10-09T05:36:44.866Z,9.6
2022-10-09T05:39:39.537Z,9.6
2022-10-09T05:44:38.653Z,9.7
2022-10-09T05:45:48.359Z,9.7
2022-10-09T05:46:52.474Z,9.7
2022-10-09T05:50:07.265Z,9.7
2022-10-09T05:58:18.192Z,9.9
2022-10-09T05:59:22.374Z,9.9
2022-10-09T06:02:48.457Z,10
2022-10-09T06:08:02.898Z,10.1
2022-10-09T06:09:06.942Z,10.1
2022-10-09T06:10:14.138Z,10.1
2022-10-09T06:13:12.130Z,10.2
2022-10-09T06:14:16.157Z,10.2
2022-10-09T06:18:44.400Z,10.3
2022-10-09T06:19:49.092Z,10.3
2022-10-09T06:21:03.477Z,10.3
2022-10-09T06:26:02.459Z,10.2
2022-10-09T06:34:15.234Z,10.5
2022-10-09T06:35:19.517Z,10.5
2022-10-09T06:38:45.029Z,10.1
2022-10-09T06:43:59.941Z,10.4
2022-10-09T06:45:04.292Z,10.4
2022-10-09T06:48:29.282Z,10.6
2022-10-09T06:54:56.969Z,11
2022-10-09T06:59:41.641Z,11.3
2022-10-09T07:04:26.381Z,11.4
2022-10-09T07:08:56.869Z,11.4
2022-10-09T07:14:28.757Z,11.6
2022-10-09T07:22:42.053Z,11.7
2022-10-09T07:23:46.152Z,11.7
2022-10-09T07:34:14.090Z,12.2
2022-10-09T07:44:13.172Z,12.6
2022-10-09T07:45:17.387Z,12.7
2022-10-09T07:49:44.300Z,13.1
2022-10-09T07:50:48.336Z,13.3
2022-10-09T07:51:52.352Z,13.4
2022-10-09T07:52:58.368Z,12.9
2022-10-09T07:54:04.503Z,13.1
2022-10-09T07:55:08.657Z,13.2
2022-10-09T07:56:12.864Z,13.2
2022-10-09T07:57:22.685Z,13.1
2022-10-09T07:58:26.709Z,13.3
2022-10-09T07:59:30.708Z,13.4
2022-10-09T08:00:34.856Z,13.5
2022-10-09T08:01:39.118Z,13.5
2022-10-09T08:02:43.257Z,13.5
2022-10-09T08:03:47.276Z,13.6
2022-10-09T08:04:51.288Z,13.7
2022-10-09T08:05:55.352Z,13.8
2022-10-09T08:07:00.119Z,13.9
2022-10-09T08:08:04.180Z,13.8
2022-10-09T08:09:08.268Z,13.9
2022-10-09T08:10:12.300Z,13.9
2022-10-09T08:11:16.392Z,13.9
2022-10-09T08:12:21.101Z,14
2022-10-09T08:13:26.408Z,13.9
2022-10-09T08:14:30.520Z,13.9
2022-10-09T08:15:35.341Z,13.9
2022-10-09T08:16:42.160Z,13.9
2022-10-09T08:17:46.181Z,13.9
2022-10-09T08:18:50.179Z,14
2022-10-09T08:19:54.309Z,13.8
2022-10-09T08:20:58.456Z,13.7
2022-10-09T08:22:03.525Z,13.7
2022-10-09T08:23:06.579Z,13.3
2022-10-09T08:24:10.796Z,13.1
2022-10-09T08:25:14.820Z,13.2
2022-10-09T08:26:18.883Z,13.4
2022-10-09T08:27:23.161Z,13.4
2022-10-09T08:28:27.259Z,13.5
2022-10-09T08:29:31.293Z,13.6
2022-10-09T08:30:36.439Z,13.7
2022-10-09T08:31:40.683Z,13.6
2022-10-09T08:32:44.743Z,13.6
2022-10-09T08:33:48.744Z,13.3
2022-10-09T08:34:55.800Z,13.3
2022-10-09T08:35:59.853Z,13.3
2022-10-09T08:37:06.530Z,13.2
2022-10-09T08:38:21.378Z,13
2022-10-09T08:39:14.800Z,12.5
2022-10-09T08:40:18.844Z,12.5
2022-10-09T08:41:27.963Z,12.5
2022-10-09T08:42:40.003Z,12.8
2022-10-09T08:43:44.344Z,12.9
2022-10-09T08:44:48.560Z,13.3
2022-10-09T08:45:52.672Z,13.5
2022-10-09T08:46:56.758Z,13.6
2022-10-09T08:48:06.687Z,13.6
2022-10-09T08:49:10.970Z,13.6
2022-10-09T08:50:15.934Z,13.6
2022-10-09T08:51:21.496Z,13.1
2022-10-09T08:52:29.460Z,13.3
2022-10-09T08:53:38.648Z,13.3
2022-10-09T08:54:47.859Z,13.4
2022-10-09T08:55:52.181Z,13.5
2022-10-09T08:56:56.272Z,13.4
2022-10-09T08:58:00.361Z,13.4
2022-10-09T08:59:04.601Z,13.3
2022-10-09T09:00:09.268Z,13.3
2022-10-09T09:01:14.238Z,13.3
2022-10-09T09:02:23.479Z,13.4
2022-10-09T09:03:37.792Z,13.3
2022-10-09T09:04:49.056Z,13.3
2022-10-09T09:06:01.407Z,13.4
2022-10-09T09:07:08.255Z,13.5
2022-10-09T09:08:20.292Z,13.6
2022-10-09T09:09:29.515Z,13.6
2022-10-09T09:10:43.920Z,13.7
2022-10-09T09:11:53.116Z,13.6
2022-10-09T09:13:05.320Z,13.7
2022-10-09T09:14:17.526Z,13.3
2022-10-09T09:20:04.945Z,13.6
2022-10-09T09:23:09.815Z,13.5
2022-10-09T09:25:48.532Z,13.7
2022-10-09T09:28:47.846Z,13.6
2022-10-09T09:33:20.180Z,13.7
2022-10-09T09:34:34.413Z,14.2
2022-10-09T09:35:38.748Z,14.3
2022-10-09T09:36:51.275Z,14.4
2022-10-09T09:37:55.845Z,14.6
2022-10-09T09:40:35.966Z,14.7
2022-10-09T09:41:31.871Z,14.6
2022-10-09T09:42:36.444Z,14.6
2022-10-09T09:43:44.587Z,14.6
2022-10-09T09:44:48.959Z,14.6
2022-10-09T09:45:58.287Z,14.6
2022-10-09T09:47:03.427Z,14.6
2022-10-09T09:48:15.109Z,14.4
2022-10-09T09:49:19.756Z,14.5
2022-10-09T09:50:45.917Z,14.4
2022-10-09T09:51:29.691Z,14.3
2022-10-09T09:52:33.287Z,14.3
2022-10-09T09:53:37.686Z,14.2
2022-10-09T09:54:45.520Z,14.2
2022-10-09T09:55:50.001Z,14.4
2022-10-09T09:57:22.169Z,14.4
2022-10-09T09:57:59.116Z,14.4
2022-10-09T09:59:03.348Z,14.3
2022-10-09T10:00:07.896Z,14.5
2022-10-09T10:01:15.228Z,14.7
2022-10-09T10:02:25.761Z,14.8
2022-10-09T10:03:29.948Z,14.9
2022-10-09T10:04:34.275Z,15
2022-10-09T10:05:38.892Z,14.8
2022-10-09T10:06:43.215Z,15.2
2022-10-09T10:07:47.647Z,15.4
2022-10-09T10:08:51.884Z,15.1
2022-10-09T10:10:01.615Z,15.2
2022-10-09T10:11:07.336Z,15.2
2022-10-09T10:12:12.660Z,15.2
2022-10-09T10:13:16.867Z,15.2
2022-10-09T10:14:24.592Z,15
2022-10-09T10:17:18.600Z,14.6
2022-10-09T10:18:25.727Z,14.7
2022-10-09T10:19:29.915Z,14.7
2022-10-09T10:20:37.393Z,14.7
2022-10-09T10:21:44.861Z,14.9
2022-10-09T10:22:50.680Z,15
2022-10-09T10:23:58.976Z,14.9
2022-10-09T10:25:03.184Z,14.7
2022-10-09T10:26:09.724Z,14.7
2022-10-09T10:27:18.967Z,14.7
2022-10-09T10:28:23.568Z,14.9
2022-10-09T10:29:33.157Z,14.7
2022-10-09T10:30:46.221Z,14.6
2022-10-09T10:31:50.688Z,14.8
2022-10-09T10:32:58.004Z,14.9
2022-10-09T10:34:02.639Z,14.8
2022-10-09T10:35:08.683Z,15
2022-10-09T10:36:15.748Z,14.3
2022-10-09T10:37:19.923Z,14.6
2022-10-09T10:38:34.536Z,14.8
2022-10-09T10:41:33.995Z,14.9
2022-10-09T10:42:41.863Z,15.1
2022-10-09T10:43:51.421Z,15.1
2022-10-09T10:44:56.063Z,14.7
2022-10-09T10:46:05.255Z,14.6
2022-10-09T10:47:19.735Z,14.6
2022-10-09T10:48:23.995Z,14.5
2022-10-09T10:49:31.736Z,14.5
2022-10-09T10:50:32.991Z,14.5
2022-10-09T10:51:38.771Z,14.7
2022-10-09T10:52:55.207Z,14.3
2022-10-09T10:54:04.033Z,14.5
2022-10-09T10:55:21.394Z,14.7
2022-10-09T10:56:33.535Z,14.8
2022-10-09T10:57:41.391Z,14.9
2022-10-09T10:58:55.840Z,15
2022-10-09T11:00:05.414Z,15.2
2022-10-09T11:01:10.275Z,15
2022-10-09T11:02:31.988Z,14.1
2022-10-09T11:03:38.943Z,14
2022-10-09T11:04:48.178Z,14.1
2022-10-09T11:05:52.632Z,14.3
2022-10-09T11:07:07.495Z,14.6
2022-10-09T11:08:12.603Z,14.7
2022-10-09T11:09:24.759Z,14.6
2022-10-09T11:10:37.127Z,14.5
2022-10-09T11:11:46.816Z,14.5
2022-10-09T11:16:33.673Z,14.7
2022-10-09T11:17:43.247Z,14.9
2022-10-09T11:18:52.972Z,15.1
2022-10-09T11:20:05.474Z,14.9
2022-10-09T11:21:20.070Z,14.8
2022-10-09T11:22:28.823Z,15.1
2022-10-09T11:23:43.243Z,15
2022-10-09T11:24:58.059Z,15.2
2022-10-09T11:26:05.454Z,15.5
2022-10-09T11:27:20.343Z,15.6
2022-10-09T11:28:27.851Z,15.8
2022-10-09T11:29:37.153Z,15.8
2022-10-09T11:30:44.479Z,15.7
2022-10-09T11:32:07.476Z,15.9
2022-10-09T11:33:14.525Z,15.6
2022-10-09T11:36:13.067Z,14.4
2022-10-09T11:41:07.301Z,15.8
2022-10-09T11:46:06.914Z,16.4
2022-10-09T11:51:05.055Z,15.8
2022-10-09T11:56:15.923Z,15.1
2022-10-09T11:57:25.360Z,15.2
2022-10-09T11:58:29.908Z,15.1
2022-10-09T11:59:34.375Z,15
2022-10-09T12:00:38.683Z,15
2022-10-09T12:01:43.245Z,14.6
2022-10-09T12:02:47.475Z,14.7
2022-10-09T12:03:51.957Z,14.9
2022-10-09T12:04:59.762Z,15
2022-10-09T12:06:12.060Z,15.1
2022-10-09T12:07:17.903Z,15.1
2022-10-09T12:08:32.324Z,15.3
2022-10-09T12:09:36.667Z,15.4
2022-10-09T12:10:43.616Z,15.5
2022-10-09T12:11:53.693Z,15.7
2022-10-09T12:13:08.971Z,15.8
2022-10-09T12:14:23.834Z,15.8
2022-10-09T12:15:28.278Z,15.9
2022-10-09T12:16:38.349Z,15.8
2022-10-09T12:17:42.851Z,15.9
2022-10-09T12:18:51.172Z,15.9
2022-10-09T12:20:01.021Z,15.9
2022-10-09T12:21:05.459Z,15.8
2022-10-09T12:22:10.702Z,15.7
2022-10-09T12:23:26.029Z,15.8
2022-10-09T12:24:19.375Z,15.4
2022-10-09T12:25:27.763Z,15.6
2022-10-09T12:26:35.232Z,15.5
2022-10-09T12:27:39.696Z,15.8
2022-10-09T12:28:44.263Z,15.9
2022-10-09T12:29:48.778Z,16.1
2022-10-09T12:30:53.214Z,16
2022-10-09T12:31:57.584Z,16
2022-10-09T12:33:08.256Z,16.1
2022-10-09T12:34:15.509Z,15.9
2022-10-09T12:35:21.555Z,15.8
2022-10-09T12:36:26.281Z,15.7
2022-10-09T12:37:30.648Z,15.6
2022-10-09T12:38:34.967Z,15.4
2022-10-09T12:39:43.689Z,15.3
2022-10-09T12:40:48.649Z,15.3
2022-10-09T12:41:53.123Z,15.5
2022-10-09T12:42:57.767Z,15.6
2022-10-09T12:44:04.791Z,15.1
2022-10-09T12:45:09.125Z,15.1
2022-10-09T12:46:19.178Z,15.2
2022-10-09T12:47:29.671Z,15.2
2022-10-09T12:48:34.231Z,15.3
2022-10-09T12:49:38.753Z,15.4
2022-10-09T12:50:43.168Z,15.3
2022-10-09T12:51:49.422Z,15.6
2022-10-09T12:52:52.791Z,15.8
2022-10-09T12:53:59.958Z,15.9
2022-10-09T12:55:04.711Z,15.9
2022-10-09T12:56:10.075Z,16
2022-10-09T12:57:17.011Z,15.9
2022-10-09T12:58:21.529Z,16.1
2022-10-09T13:00:29.663Z,16.3
2022-10-09T13:01:35.097Z,16.3
2022-10-09T13:02:39.462Z,16.3
2022-10-09T13:03:43.855Z,16.3
2022-10-09T13:04:53.196Z,16.3
2022-10-09T13:07:48.504Z,16.2
2022-10-09T13:08:52.026Z,16
2022-10-09T13:10:01.526Z,15.9
2022-10-09T13:11:09.361Z,15.9
2022-10-09T13:12:22.179Z,15.7
2022-10-09T13:17:05.654Z,15.8
2022-10-09T13:18:20.047Z,15.4
2022-10-09T13:22:43.483Z,15.4
2022-10-09T13:23:55.517Z,15
2022-10-09T13:25:07.652Z,15.2
2022-10-09T13:28:01.387Z,15.2
2022-10-09T13:29:07.278Z,15
2022-10-09T13:30:11.775Z,15.1
2022-10-09T13:31:16.356Z,14.9
2022-10-09T13:32:21.983Z,14.8
2022-10-09T13:33:26.310Z,15.1
2022-10-09T13:34:30.521Z,15.2
2022-10-09T13:35:34.869Z,15.2
2022-10-09T13:36:43.405Z,15.3
2022-10-09T13:37:48.000Z,15.4
2022-10-09T13:38:51.871Z,15.6
2022-10-09T13:39:56.132Z,15.7
2022-10-09T13:41:00.242Z,15.5
2022-10-09T13:42:04.781Z,15.5
2022-10-09T13:43:09.030Z,15.3
2022-10-09T13:44:14.206Z,15.3
2022-10-09T13:45:18.628Z,15.3
2022-10-09T13:46:23.001Z,15.4
2022-10-09T13:47:27.745Z,15.5
2022-10-09T13:48:32.855Z,15.5
2022-10-09T13:49:38.202Z,15.6
2022-10-09T13:50:43.325Z,15.6
2022-10-09T13:51:47.914Z,15.7
2022-10-09T13:52:52.111Z,15.5
2022-10-09T13:53:56.452Z,15.5
2022-10-09T13:55:00.894Z,15.4
2022-10-09T13:56:06.110Z,15.3
2022-10-09T13:57:10.202Z,15.3
2022-10-09T13:58:14.411Z,15.4
2022-10-09T13:59:18.829Z,15.5
2022-10-09T14:00:23.037Z,15.6
2022-10-09T14:01:27.797Z,15.6
2022-10-09T14:02:32.555Z,15.3
2022-10-09T14:03:40.082Z,15.4
2022-10-09T14:04:44.866Z,15.1
2022-10-09T14:05:49.038Z,15.2
2022-10-09T14:07:01.282Z,15.2
2022-10-09T14:08:05.593Z,15.3
2022-10-09T14:09:12.962Z,15.3
2022-10-09T14:10:21.568Z,15.2
2022-10-09T14:11:21.990Z,15.3
2022-10-09T14:12:26.285Z,15.4
2022-10-09T14:13:30.703Z,15.1
2022-10-09T14:14:36.910Z,15.1
2022-10-09T14:15:41.523Z,14.9
2022-10-09T14:16:50.427Z,15.1
2022-10-09T14:17:54.662Z,15.1
2022-10-09T14:18:58.946Z,14.8
2022-10-09T14:20:03.135Z,14.9
2022-10-09T14:21:11.281Z,15
2022-10-09T14:22:12.557Z,14.9
2022-10-09T14:23:16.887Z,14.8
2022-10-09T14:24:21.458Z,14.7
2022-10-09T14:25:26.210Z,14.8
2022-10-09T14:26:30.661Z,14.4
2022-10-09T14:28:39.112Z,14.5
2022-10-09T14:29:43.762Z,14.4
2022-10-09T14:30:48.120Z,14.4
2022-10-09T14:31:52.898Z,14.6
2022-10-09T14:32:57.242Z,14.6
2022-10-09T14:34:01.493Z,14.6
2022-10-09T14:35:05.765Z,14.7
2022-10-09T14:36:10.453Z,14.8
2022-10-09T14:37:24.025Z,14.7
2022-10-09T14:38:19.842Z,14.8
2022-10-09T14:39:25.144Z,14.8
2022-10-09T14:40:29.338Z,14.6
2022-10-09T14:41:37.543Z,14.7
2022-10-09T14:42:43.637Z,14.6
2022-10-09T14:43:48.636Z,14.7
2022-10-09T14:44:55.485Z,14.7
2022-10-09T14:45:59.818Z,14.7
2022-10-09T14:47:09.257Z,14.8
2022-10-09T14:48:13.537Z,14.6
2022-10-09T14:49:18.130Z,14.5
2022-10-09T14:50:22.365Z,14.4
2022-10-09T14:51:26.617Z,14.5
2022-10-09T14:52:31.246Z,14.5
2022-10-09T14:53:35.383Z,14.4
2022-10-09T14:54:39.606Z,14.5
2022-10-09T14:56:48.558Z,14.6
2022-10-09T14:57:54.805Z,14.6
2022-10-09T14:58:59.069Z,14.6
2022-10-09T15:00:03.412Z,14.6
2022-10-09T15:01:08.097Z,14.6
2022-10-09T15:02:15.535Z,14.6
2022-10-09T15:03:20.169Z,14.4
2022-10-09T15:04:24.498Z,14.4
2022-10-09T15:05:28.842Z,14.4
2022-10-09T15:07:36.057Z,14.2
2022-10-09T15:08:40.361Z,14.3
2022-10-09T15:09:44.827Z,14.2
2022-10-09T15:10:49.161Z,14.2
2022-10-09T15:11:53.768Z,14.2
2022-10-09T15:12:58.093Z,14.2
2022-10-09T15:14:02.522Z,14.3
2022-10-09T15:15:06.936Z,14.2
2022-10-09T15:16:11.317Z,14.1
2022-10-09T15:17:15.945Z,14.2
2022-10-09T15:18:20.266Z,14.3
2022-10-09T15:19:24.442Z,14.3
2022-10-09T15:20:29.564Z,14.3
2022-10-09T15:21:33.933Z,14.3
2022-10-09T15:22:38.583Z,14.3
2022-10-09T15:23:42.874Z,14.3
2022-10-09T15:24:47.395Z,14.3
2022-10-09T15:25:51.582Z,14.3
2022-10-09T15:26:55.793Z,14.3
2022-10-09T15:28:00.885Z,14.3
2022-10-09T15:29:04.765Z,14.3
2022-10-09T15:30:09.189Z,14.3
2022-10-09T15:31:14.389Z,14.2
2022-10-09T15:32:26.273Z,14.2
2022-10-09T15:35:21.180Z,14.1
2022-10-09T15:40:05.550Z,14
2022-10-09T15:41:10.146Z,13.9
2022-10-09T15:42:20.177Z,13.9
2022-10-09T15:45:14.535Z,13.8
2022-10-09T15:46:19.130Z,13.7
2022-10-09T15:47:39.548Z,13.7
2022-10-09T15:48:35.846Z,13.7
2022-10-09T15:49:40.068Z,13.6
2022-10-09T15:52:18.620Z,13.5
2022-10-09T15:53:23.653Z,13.5
2022-10-09T15:54:27.985Z,13.4
2022-10-09T15:55:32.637Z,13.4
2022-10-09T15:56:39.814Z,13.3
2022-10-09T15:57:43.360Z,13.3
2022-10-09T15:58:47.655Z,13.2
2022-10-09T15:59:52.189Z,13.2
2022-10-09T16:00:56.441Z,13.1
2022-10-09T16:02:06.045Z,13.1
2022-10-09T16:03:13.473Z,13
2022-10-09T16:04:17.721Z,13
2022-10-09T16:05:22.493Z,12.9
2022-10-09T16:06:27.091Z,12.9
2022-10-09T16:07:31.320Z,12.8
2022-10-09T16:09:39.200Z,12.7
2022-10-09T16:10:47.815Z,12.7
2022-10-09T16:11:47.997Z,12.6
2022-10-09T16:12:52.541Z,12.6
2022-10-09T16:13:56.598Z,12.5
2022-10-09T16:15:00.929Z,12.5
2022-10-09T16:16:05.462Z,12.5
2022-10-09T16:18:13.653Z,12.4
2022-10-09T16:19:20.968Z,12.4
2022-10-09T16:20:25.240Z,12.3
2022-10-09T16:21:29.471Z,12.3
2022-10-09T16:22:34.024Z,12.3
2022-10-09T16:23:38.459Z,12.2
2022-10-09T16:24:42.849Z,12.1
2022-10-09T16:25:47.661Z,12.1
2022-10-09T16:26:57.717Z,12.1
2022-10-09T16:28:02.545Z,12.1
2022-10-09T16:29:07.787Z,12.1
2022-10-09T16:30:12.449Z,12
2022-10-09T16:31:16.781Z,12
2022-10-09T16:32:24.089Z,11.9
2022-10-09T16:33:29.708Z,11.9
2022-10-09T16:34:34.283Z,11.9
2022-10-09T16:35:38.508Z,11.8
2022-10-09T16:36:43.464Z,11.8
2022-10-09T16:37:47.818Z,11.7
2022-10-09T16:38:52.308Z,11.7
2022-10-09T16:39:56.580Z,11.7
2022-10-09T16:41:02.763Z,11.6
2022-10-09T16:42:12.328Z,11.6
2022-10-09T16:43:16.955Z,11.6
2022-10-09T16:44:21.402Z,11.5
2022-10-09T16:45:25.785Z,11.5
2022-10-09T16:46:30.151Z,11.4
2022-10-09T16:47:34.560Z,11.4
2022-10-09T16:48:39.661Z,11.3
2022-10-09T16:49:44.028Z,11.2
2022-10-09T16:50:48.580Z,11.2
2022-10-09T16:51:53.414Z,11.2
2022-10-09T16:52:57.975Z,11.2
2022-10-09T16:55:06.076Z,11.1
2022-10-09T16:56:10.936Z,11.1
2022-10-09T16:57:15.473Z,11.1
2022-10-09T16:58:23.571Z,11.1
2022-10-09T16:59:32.360Z,11.1
2022-10-09T17:00:36.778Z,11.1
2022-10-09T17:01:43.368Z,11.1
2022-10-09T17:02:48.280Z,11.1
2022-10-09T17:03:52.412Z,11.1
2022-10-09T17:05:02.248Z,11.1
2022-10-09T17:06:07.160Z,11
2022-10-09T17:07:11.910Z,11
2022-10-09T17:08:16.493Z,11
2022-10-09T17:09:22.669Z,10.9
2022-10-09T17:10:27.057Z,10.9
2022-10-09T17:11:31.534Z,10.9
2022-10-09T17:12:36.328Z,10.9
2022-10-09T17:13:40.744Z,10.9
2022-10-09T17:14:46.621Z,10.9
2022-10-09T17:15:59.304Z,10.8
2022-10-09T17:17:58.621Z,10.8
2022-10-09T17:19:03.203Z,10.8
2022-10-09T17:20:07.886Z,10.7
2022-10-09T17:21:12.236Z,10.8
2022-10-09T17:22:16.976Z,10.8
2022-10-09T17:23:21.300Z,10.8
2022-10-09T17:24:25.536Z,10.8
2022-10-09T17:25:29.788Z,10.8
2022-10-09T17:26:34.053Z,10.9
2022-10-09T17:27:38.636Z,10.9
2022-10-09T17:28:43.127Z,10.9
2022-10-09T17:29:47.564Z,10.9
2022-10-09T17:30:52.110Z,10.9
2022-10-09T17:31:57.753Z,10.8
2022-10-09T17:33:02.263Z,10.8
2022-10-09T17:34:06.544Z,10.8
2022-10-09T17:35:10.790Z,10.8
2022-10-09T17:36:15.103Z,10.8
2022-10-09T17:37:19.656Z,10.7
2022-10-09T17:38:24.452Z,10.8
2022-10-09T17:39:28.860Z,10.8
2022-10-09T17:40:33.404Z,10.7
2022-10-09T17:41:41.917Z,10.7
2022-10-09T17:42:46.574Z,10.7
2022-10-09T17:43:51.132Z,10.7
2022-10-09T17:44:59.068Z,10.7
2022-10-09T17:46:03.437Z,10.8
2022-10-09T17:47:07.708Z,10.7
2022-10-09T17:48:12.081Z,10.7
2022-10-09T17:49:16.288Z,10.7
2022-10-09T17:50:20.811Z,10.6
2022-10-09T17:51:25.386Z,10.6
2022-10-09T17:53:36.456Z,10.6
2022-10-09T17:54:40.688Z,10.6
2022-10-09T17:55:45.080Z,10.6
2022-10-09T17:56:49.653Z,10.6
2022-10-09T17:57:54.137Z,10.6
2022-10-09T17:58:58.723Z,10.6
2022-10-09T18:00:04.321Z,10.6
2022-10-09T18:01:08.932Z,10.5
2022-10-09T18:02:13.272Z,10.5
2022-10-09T18:03:17.574Z,10.5
2022-10-09T18:08:02.842Z,10.4
2022-10-09T18:09:07.088Z,10.4
2022-10-09T18:13:48.836Z,10.4
2022-10-09T18:18:27.739Z,10.3
2022-10-09T18:21:23.644Z,10.2
2022-10-09T18:22:28.558Z,10.1
2022-10-09T18:23:33.899Z,10.1
2022-10-09T18:24:38.991Z,10.1
2022-10-09T18:25:43.256Z,10.1
2022-10-09T18:28:37.448Z,10.1
2022-10-09T18:29:41.812Z,10
2022-10-09T18:30:46.812Z,10
2022-10-09T18:31:51.080Z,10
2022-10-09T18:32:55.579Z,10
2022-10-09T18:33:59.984Z,10
2022-10-09T18:35:04.927Z,10
2022-10-09T18:36:09.829Z,10
2022-10-09T18:37:14.580Z,9.9
2022-10-09T18:38:19.180Z,9.9
2022-10-09T18:39:23.996Z,9.9
2022-10-09T18:40:28.763Z,9.8
2022-10-09T18:41:33.508Z,9.8
2022-10-09T18:42:38.411Z,9.8
2022-10-09T18:43:42.796Z,9.8
2022-10-09T18:44:47.336Z,9.7
2022-10-09T18:45:54.214Z,9.6
2022-10-09T18:46:58.913Z,9.7
2022-10-09T18:48:03.602Z,9.6
2022-10-09T18:50:11.809Z,9.7
2022-10-09T18:51:16.483Z,9.6
2022-10-09T18:52:20.871Z,9.6
2022-10-09T18:53:25.584Z,9.6
2022-10-09T18:54:30.247Z,9.5
2022-10-09T18:55:34.948Z,9.5
2022-10-09T18:56:39.527Z,9.5
2022-10-09T18:57:46.313Z,9.5
2022-10-09T18:58:50.523Z,9.5
2022-10-09T18:59:55.087Z,9.5
2022-10-09T19:04:41.060Z,9.3
2022-10-09T19:09:25.910Z,9.3
2022-10-09T19:10:43.692Z,9.3
2022-10-09T19:13:43.709Z,9.2
2022-10-09T19:17:40.278Z,9.2
2022-10-09T19:22:36.083Z,9.2
2022-10-09T19:23:40.555Z,9.2
2022-10-09T19:29:12.520Z,9.2
2022-10-09T19:37:27.379Z,9.3
2022-10-09T19:38:29.900Z,9.2
2022-10-09T19:47:24.357Z,9.2
2022-10-09T19:48:28.784Z,9.1
2022-10-09T20:04:16.759Z,9
2022-10-09T20:05:26.299Z,8.9
2022-10-09T20:06:30.459Z,8.9
2022-10-09T20:09:29.775Z,8.8
2022-10-09T20:10:34.015Z,8.8
2022-10-09T20:15:48.724Z,8.6
2022-10-09T20:21:03.343Z,8.7
2022-10-09T20:23:57.643Z,8.7
2022-10-09T20:29:12.120Z,8.8
2022-10-09T20:33:42.103Z,8.8
2022-10-09T20:39:14.619Z,8.8
2022-10-09T20:42:42.964Z,8.8
2022-10-09T20:47:27.639Z,8.8
2022-10-09T20:52:37.267Z,8.7
2022-10-09T20:53:41.536Z,8.7
2022-10-09T21:01:52.198Z,8.5
2022-10-09T21:02:56.504Z,8.5
2022-10-09T21:11:37.395Z,8.6
2022-10-09T21:12:41.981Z,8.5
2022-10-09T21:16:12.759Z,8.5
2022-10-09T21:21:02.461Z,8.6
2022-10-09T21:22:09.727Z,8.6
2022-10-09T21:34:51.295Z,8.5
2022-10-09T21:35:55.508Z,8.5
2022-10-09T21:39:20.955Z,8.5
2022-10-09T21:44:35.451Z,8.5
2022-10-09T21:45:39.659Z,8.4
2022-10-09T21:49:07.565Z,8.4
2022-10-09T21:54:27.442Z,8.3
2022-10-09T21:55:31.636Z,8.3
2022-10-09T22:03:41.295Z,8.3
2022-10-09T22:04:45.453Z,8.2
2022-10-09T22:09:30.115Z,8.1
2022-10-09T22:13:23.766Z,8.1
2022-10-09T22:14:27.867Z,8.1
2022-10-09T22:19:01.683Z,8.1
2022-10-09T22:28:01.221Z,7.8
2022-10-09T22:29:07.983Z,7.8
2022-10-09T22:32:47.614Z,7.7
2022-10-09T22:33:55.515Z,7.7
2022-10-09T22:34:59.970Z,7.8
2022-10-09T22:36:08.482Z,7.8
2022-10-09T22:37:13.078Z,7.7
2022-10-09T22:38:17.739Z,7.7
2022-10-09T22:39:22.050Z,7.7
2022-10-09T22:40:26.419Z,7.7
2022-10-09T22:41:30.744Z,7.7
2022-10-09T22:42:35.163Z,7.7
2022-10-09T22:43:39.386Z,7.8
2022-10-09T22:47:36.066Z,7.8
2022-10-09T22:48:40.940Z,7.7
2022-10-09T22:49:47.726Z,7.7
2022-10-09T22:50:52.095Z,7.7
2022-10-09T22:53:46.743Z,7.7
2022-10-09T22:54:51.106Z,7.8
2022-10-09T22:55:55.659Z,7.7
2022-10-09T22:57:00.090Z,7.8
2022-10-09T22:58:05.978Z,7.8
2022-10-09T22:59:10.342Z,7.8
2022-10-09T23:00:14.730Z,7.8
2022-10-09T23:01:19.312Z,7.8
2022-10-09T23:02:25.827Z,7.9
2022-10-09T23:03:30.198Z,7.9
2022-10-09T23:04:34.663Z,7.9
2022-10-09T23:05:38.911Z,7.8
2022-10-09T23:06:43.098Z,7.8
2022-10-09T23:07:49.191Z,7.7
2022-10-09T23:08:57.462Z,7.7
2022-10-09T23:10:01.654Z,7.7
2022-10-09T23:11:06.923Z,7.7
2022-10-09T23:15:52.431Z,7.8
2022-10-09T23:16:56.703Z,7.8
2022-10-09T23:18:00.898Z,7.8
2022-10-09T23:19:06.910Z,7.7
2022-10-09T23:20:09.426Z,7.7
2022-10-09T23:21:13.846Z,7.7
2022-10-09T23:25:10.034Z,7.8
2022-10-09T23:26:14.358Z,7.8
2022-10-09T23:27:18.654Z,7.7
2022-10-09T23:32:03.317Z,7.9
2022-10-09T23:33:07.745Z,7.8
2022-10-09T23:36:02.289Z,7.9
2022-10-09T23:37:06.837Z,7.9
2022-10-09T23:38:11.316Z,7.8
2022-10-09T23:39:15.805Z,7.7
2022-10-09T23:40:20.081Z,7.8
2022-10-09T23:43:14.745Z,7.7
2022-10-09T23:44:22.103Z,7.7
2022-10-09T23:45:23.272Z,7.8
2022-10-09T23:46:28.686Z,7.7
2022-10-09T23:47:35.865Z,7.7
2022-10-09T23:48:40.142Z,7.7
2022-10-09T23:51:31.515Z,7.6
2022-10-09T23:52:35.872Z,7.6
2022-10-09T23:53:40.168Z,7.7
2022-10-09T23:54:44.432Z,7.7
2022-10-09T23:55:48.769Z,7.7
2022-10-09T23:56:52.969Z,7.7
2022-10-09T23:59:47.548Z,7.7
